createdAt,value
2023-04-18T04:23:43.632Z,100.00
2023-04-18T04:27:49.799Z,100.00
2023-04-18T04:31:53.106Z,100.00
2023-04-18T04:35:57.397Z,100.00
2023-04-18T04:40:00.776Z,100.00
2023-04-18T04:44:04.528Z,100.00
2023-04-18T04:48:09.193Z,100.00
2023-04-18T04:52:12.210Z,100.00
2023-04-18T04:56:15.679Z,100.00
2023-04-18T05:00:23.053Z,100.00
2023-04-18T05:04:26.577Z,100.00
2023-04-18T05:08:29.721Z,100.00
2023-04-18T05:12:32.372Z,100.00
2023-04-18T05:16:36.016Z,100.00
2023-04-18T05:20:38.702Z,100.00
2023-04-18T05:24:42.092Z,100.00
2023-04-18T05:28:44.696Z,100.00
2023-04-18T05:37:48.360Z,100.00
2023-04-18T05:41:51.347Z,100.00
2023-04-18T05:45:55.849Z,100.00
2023-04-18T05:50:00.581Z,100.00
2023-04-18T05:54:03.673Z,100.00
2023-04-18T05:58:09.184Z,100.00
2023-04-18T06:02:14.043Z,100.00
2023-04-18T06:06:17.964Z,100.00
2023-04-18T06:10:22.299Z,100.00
2023-04-18T06:14:27.099Z,99.45
2023-04-18T06:18:29.791Z,96.90
2023-04-18T06:22:34.266Z,94.34
2023-04-18T06:26:37.001Z,94.88
2023-04-18T06:30:40.045Z,94.55
2023-04-18T06:34:44.014Z,93.76
2023-04-18T06:38:58.608Z,93.37
2023-04-18T06:43:07.604Z,92.73
2023-04-18T06:47:11.797Z,91.81
2023-04-18T06:51:14.454Z,90.10
2023-04-18T06:55:17.422Z,89.48
2023-04-18T06:59:21.696Z,88.56
2023-04-18T07:03:24.990Z,85.22
2023-04-18T07:07:29.536Z,85.30
2023-04-18T07:11:33.495Z,83.53
2023-04-18T07:15:36.619Z,78.74
2023-04-18T07:19:40.603Z,75.25
2023-04-18T07:23:43.234Z,72.60
2023-04-18T07:27:46.421Z,70.43
2023-04-18T07:31:49.150Z,66.84
2023-04-18T07:35:53.270Z,64.39
2023-04-18T07:39:59.626Z,68.26
2023-04-18T07:44:02.992Z,65.53
2023-04-18T07:48:07.171Z,67.87
2023-04-18T07:52:10.241Z,67.00
2023-04-18T07:56:14.582Z,64.61
2023-04-18T08:00:18.395Z,63.94
2023-04-18T08:04:21.640Z,62.46
2023-04-18T08:08:24.401Z,64.51
2023-04-18T08:12:27.534Z,63.45
2023-04-18T08:16:30.246Z,64.04
2023-04-18T08:20:34.530Z,60.20
2023-04-18T08:24:38.884Z,60.70
2023-04-18T08:28:42.923Z,59.09
2023-04-18T08:32:46.560Z,58.42
2023-04-18T08:36:51.034Z,58.79
2023-04-18T08:40:53.790Z,54.81
2023-04-18T08:44:59.899Z,56.91
2023-04-18T08:49:04.780Z,54.04
2023-04-18T08:53:08.511Z,52.92
2023-04-18T08:57:13.833Z,50.44
2023-04-18T09:01:18.213Z,51.18
2023-04-18T09:05:22.782Z,50.96
2023-04-18T09:09:27.721Z,48.28
2023-04-18T09:13:39.953Z,47.92
2023-04-18T09:17:56.034Z,47.76
2023-04-18T09:22:02.825Z,47.67
2023-04-18T09:26:07.367Z,50.28
2023-04-18T09:30:10.618Z,46.12
2023-04-18T09:34:25.198Z,45.38
2023-04-18T09:38:41.398Z,43.60
2023-04-18T09:42:56.784Z,44.10
2023-04-18T09:47:03.998Z,44.19
2023-04-18T09:51:11.768Z,48.28
2023-04-18T09:55:19.428Z,44.34
2023-04-18T09:59:37.483Z,43.38
2023-04-18T10:03:47.494Z,40.35
2023-04-18T10:07:51.222Z,37.60
2023-04-18T10:11:54.668Z,40.55
2023-04-18T10:15:57.807Z,40.87
2023-04-18T10:20:06.628Z,40.97
2023-04-18T10:24:33.300Z,39.88
2023-04-18T10:28:59.661Z,40.52
2023-04-18T10:33:32.907Z,39.92
2023-04-18T10:37:52.525Z,36.73
2023-04-18T10:41:57.095Z,37.29
2023-04-18T10:46:20.475Z,37.57
2023-04-18T10:50:56.577Z,38.00
2023-04-18T10:55:36.964Z,35.73
2023-04-18T10:59:50.166Z,34.86
2023-04-18T11:03:53.874Z,31.59
2023-04-18T11:07:59.242Z,32.53
2023-04-18T11:12:09.471Z,32.12
2023-04-18T11:16:34.800Z,34.01
2023-04-18T11:20:49.479Z,32.32
2023-04-18T11:24:53.257Z,33.53
2023-04-18T11:28:59.167Z,34.02
2023-04-18T11:33:12.265Z,34.28
2023-04-18T11:37:15.690Z,37.06
2023-04-18T11:41:18.882Z,33.83
2023-04-18T11:45:21.752Z,30.61
2023-04-18T11:49:29.835Z,33.68
2023-04-18T11:53:37.047Z,30.28
2023-04-18T11:57:41.041Z,29.08
2023-04-18T12:01:43.972Z,31.17
2023-04-18T12:05:47.266Z,31.91
2023-04-18T12:09:52.753Z,30.91
2023-04-18T12:13:56.935Z,29.39
2023-04-18T12:18:00.978Z,29.07
2023-04-18T12:22:17.080Z,24.26
2023-04-18T12:26:20.581Z,24.58
2023-04-18T12:30:27.398Z,25.96
2023-04-18T12:34:30.890Z,25.33
2023-04-18T12:38:34.332Z,25.01
2023-04-18T12:42:37.102Z,25.67
2023-04-18T12:46:40.182Z,27.84
2023-04-18T12:50:42.912Z,26.15
2023-04-18T12:54:46.200Z,25.89
2023-04-18T12:58:49.496Z,23.80
2023-04-18T13:02:53.122Z,23.62
2023-04-18T13:06:56.066Z,24.14
2023-04-18T13:10:59.229Z,24.39
2023-04-18T13:15:01.942Z,22.13
2023-04-18T13:19:05.067Z,23.40
2023-04-18T13:23:07.736Z,23.53
2023-04-18T13:27:10.799Z,23.38
2023-04-18T13:31:15.050Z,26.73
2023-04-18T13:35:19.745Z,28.47
2023-04-18T13:39:24.513Z,27.81
2023-04-18T13:43:27.452Z,27.28
2023-04-18T13:47:30.641Z,27.41
2023-04-18T13:51:44.420Z,27.23
2023-04-18T13:55:50.381Z,29.24
2023-04-18T14:00:28.923Z,30.80
2023-04-18T14:04:34.110Z,29.38
2023-04-18T14:08:56.709Z,30.38
2023-04-18T14:13:02.077Z,28.77
2023-04-18T14:17:04.953Z,26.86
2023-04-18T14:21:07.972Z,26.75
2023-04-18T14:25:10.740Z,27.39
2023-04-18T14:29:14.670Z,27.94
2023-04-18T14:33:17.885Z,29.16
2023-04-18T14:37:21.417Z,29.42
2023-04-18T14:41:24.145Z,31.96
2023-04-18T14:45:27.234Z,31.02
2023-04-18T14:49:29.922Z,31.24
2023-04-18T14:53:32.955Z,29.02
2023-04-18T14:57:36.804Z,30.36
2023-04-18T15:01:41.618Z,29.64
2023-04-18T15:05:46.661Z,28.81
2023-04-18T15:09:49.793Z,29.47
2023-04-18T15:13:52.404Z,29.08
2023-04-18T15:17:55.463Z,29.27
